createdAt,value
2022-12-24T00:01:37.960Z,10.50
2022-12-24T00:12:06.116Z,6.80
2022-12-24T00:22:33.529Z,6.10
2022-12-24T00:33:01.882Z,7.50
2022-12-24T00:43:30.665Z,5.90
2022-12-24T00:53:58.293Z,6.70
2022-12-24T01:04:43.712Z,5.90
2022-12-24T01:15:13.885Z,5.90
2022-12-24T01:25:41.999Z,7.00
2022-12-24T01:36:10.825Z,6.30
2022-12-24T01:46:38.770Z,8.20
2022-12-24T01:57:09.860Z,10.00
2022-12-24T02:07:38.758Z,5.30
2022-12-24T02:29:00.980Z,7.80
2022-12-24T02:39:35.051Z,8.60
2022-12-24T02:50:04.795Z,6.10
2022-12-24T03:00:42.102Z,8.60
2022-12-24T03:11:12.991Z,7.70
2022-12-24T03:21:44.580Z,7.90
2022-12-24T03:32:12.072Z,9.40
2022-12-24T03:42:40.648Z,7.00
2022-12-24T03:53:08.284Z,7.30
2022-12-24T04:03:35.799Z,6.70
2022-12-24T04:14:03.678Z,8.80
2022-12-24T04:24:31.243Z,8.50
2022-12-24T04:34:59.034Z,10.30
2022-12-24T04:45:26.641Z,9.30
2022-12-24T04:55:54.894Z,9.30
2022-12-24T05:06:25.411Z,9.30
2022-12-24T05:16:53.548Z,10.40
2022-12-24T05:27:22.031Z,9.10
2022-12-24T05:37:49.540Z,7.00
2022-12-24T05:48:17.180Z,9.60
2022-12-24T05:58:45.476Z,8.90
2022-12-24T06:09:13.041Z,8.70
2022-12-24T06:19:40.725Z,7.70
2022-12-24T06:30:10.254Z,7.80
2022-12-24T06:40:39.091Z,8.30
2022-12-24T06:51:07.238Z,8.20
2022-12-24T07:01:34.827Z,10.00
2022-12-24T07:12:02.547Z,10.60
2022-12-24T07:22:30.159Z,12.90
2022-12-24T07:32:57.917Z,10.90
2022-12-24T07:43:25.900Z,9.00
2022-12-24T07:53:53.817Z,9.10
2022-12-24T08:04:21.458Z,7.80
2022-12-24T08:14:49.207Z,8.60
2022-12-24T08:25:17.542Z,8.20
2022-12-24T08:35:50.484Z,9.10
2022-12-24T08:46:18.098Z,7.30
2022-12-24T08:56:45.800Z,7.80
2022-12-24T09:07:13.705Z,5.70
2022-12-24T09:17:41.765Z,7.10
2022-12-24T09:28:09.463Z,7.70
2022-12-24T09:38:37.809Z,10.30
2022-12-24T09:49:12.090Z,8.50
2022-12-24T09:59:45.258Z,8.90
2022-12-24T10:10:24.375Z,11.80
2022-12-24T10:21:00.191Z,11.20
2022-12-24T10:31:31.188Z,11.70
2022-12-24T10:42:03.021Z,10.00
2022-12-24T10:52:34.830Z,9.90
2022-12-24T11:03:25.623Z,11.70
2022-12-24T11:13:58.652Z,11.30
2022-12-24T11:24:30.122Z,13.10
2022-12-24T11:35:01.548Z,12.90
2022-12-24T11:45:31.266Z,13.60
2022-12-24T11:56:02.204Z,12.60
2022-12-24T12:06:34.629Z,11.10
2022-12-24T12:17:14.020Z,9.90
2022-12-24T12:27:47.386Z,6.20
2022-12-24T12:38:20.917Z,5.10
2022-12-24T12:49:03.107Z,5.60
2022-12-24T12:59:36.742Z,6.20
2022-12-24T13:10:34.050Z,5.60
2022-12-24T13:21:01.916Z,4.20
2022-12-24T13:31:31.227Z,5.10
2022-12-24T13:41:59.116Z,4.80
2022-12-24T13:52:35.334Z,7.70
2022-12-24T14:14:10.130Z,5.70
2022-12-24T14:24:43.607Z,4.30
2022-12-24T14:35:19.101Z,4.80
2022-12-24T14:45:53.101Z,5.40
2022-12-24T14:56:22.620Z,6.50
2022-12-24T15:06:53.831Z,4.90
2022-12-24T15:17:21.678Z,4.80
2022-12-24T15:27:49.259Z,6.00
2022-12-24T15:38:27.997Z,4.40
2022-12-24T15:48:57.752Z,6.70
2022-12-24T15:59:32.468Z,10.20
2022-12-24T16:10:15.005Z,10.50
2022-12-24T16:20:47.579Z,12.00
2022-12-24T16:31:20.714Z,13.90
2022-12-24T16:42:05.885Z,11.40
2022-12-24T16:52:34.769Z,8.90
2022-12-24T17:03:02.535Z,8.70
2022-12-24T17:13:30.239Z,10.30
2022-12-24T17:23:57.796Z,11.90
2022-12-24T17:34:25.471Z,16.30
2022-12-24T17:44:53.369Z,11.50
2022-12-24T17:55:22.637Z,9.20
2022-12-24T18:05:50.335Z,12.30
2022-12-24T18:16:21.652Z,11.60
2022-12-24T18:26:49.677Z,15.50
2022-12-24T18:37:17.375Z,17.50
2022-12-24T18:47:45.615Z,25.40
2022-12-24T18:58:13.810Z,23.10
2022-12-24T19:19:29.680Z,18.90
2022-12-24T19:29:57.325Z,20.20
2022-12-24T19:40:24.969Z,18.00
2022-12-24T19:50:52.791Z,17.70
2022-12-24T20:01:22.824Z,20.60
2022-12-24T20:11:52.453Z,18.70
2022-12-24T20:22:20.162Z,25.20
2022-12-24T20:32:48.014Z,15.30
2022-12-24T20:43:18.596Z,19.00
2022-12-24T20:53:50.293Z,17.30
2022-12-24T21:04:17.849Z,15.80
2022-12-24T21:14:45.376Z,15.30
2022-12-24T21:25:14.519Z,18.20
2022-12-24T21:35:42.318Z,12.30
2022-12-24T21:46:11.532Z,14.00
2022-12-24T21:56:53.556Z,16.00
2022-12-24T22:07:42.238Z,19.50
2022-12-24T22:18:09.778Z,20.60
2022-12-24T22:28:37.228Z,18.80
2022-12-24T22:39:04.953Z,14.60
2022-12-24T22:49:33.734Z,14.50
2022-12-24T23:10:27.544Z,12.30
2022-12-24T23:20:55.069Z,11.80
2022-12-24T23:31:23.434Z,12.00
2022-12-24T23:41:51.203Z,12.60
2022-12-24T23:52:19.302Z,14.90
